sensor_id;sensor_type;location;lat;lon;timestamp;P1;durP1;ratioP1;P2;durP2;ratioP2
39970;SDS011;35425;51.142;17.178;2023-02-13T00:02:20;3.90;;;3.10;;
39970;SDS011;35425;51.142;17.178;2023-02-13T00:04:47;6.15;;;3.67;;
39970;SDS011;35425;51.142;17.178;2023-02-13T00:07:13;4.35;;;3.47;;
39970;SDS011;35425;51.142;17.178;2023-02-13T00:09:40;4.38;;;3.80;;
39970;SDS011;35425;51.142;17.178;2023-02-13T00:12:07;4.65;;;3.80;;
39970;SDS011;35425;51.142;17.178;2023-02-13T00:14:34;4.68;;;3.63;;
39970;SDS011;35425;51.142;17.178;2023-02-13T00:17:00;4.28;;;3.53;;
39970;SDS011;35425;51.142;17.178;2023-02-13T00:19:27;4.00;;;3.30;;
39970;SDS011;35425;51.142;17.178;2023-02-13T00:21:53;3.97;;;3.15;;
39970;SDS011;35425;51.142;17.178;2023-02-13T00:24:20;4.25;;;3.67;;
39970;SDS011;35425;51.142;17.178;2023-02-13T00:26:46;4.05;;;3.33;;
39970;SDS011;35425;51.142;17.178;2023-02-13T00:29:13;4.68;;;3.47;;
39970;SDS011;35425;51.142;17.178;2023-02-13T00:31:39;3.60;;;3.30;;
39970;SDS011;35425;51.142;17.178;2023-02-13T00:34:06;4.35;;;3.05;;
39970;SDS011;35425;51.142;17.178;2023-02-13T00:36:32;4.15;;;2.90;;
39970;SDS011;35425;51.142;17.178;2023-02-13T00:38:59;4.38;;;3.22;;
39970;SDS011;35425;51.142;17.178;2023-02-13T00:41:25;5.63;;;3.20;;
39970;SDS011;35425;51.142;17.178;2023-02-13T00:43:52;3.38;;;3.00;;
39970;SDS011;35425;51.142;17.178;2023-02-13T00:46:18;3.72;;;3.20;;
39970;SDS011;35425;51.142;17.178;2023-02-13T00:48:44;3.88;;;3.47;;
39970;SDS011;35425;51.142;17.178;2023-02-13T00:51:11;3.35;;;2.90;;
39970;SDS011;35425;51.142;17.178;2023-02-13T00:53:38;3.88;;;2.90;;
39970;SDS011;35425;51.142;17.178;2023-02-13T00:56:04;3.83;;;3.03;;
39970;SDS011;35425;51.142;17.178;2023-02-13T00:58:31;3.42;;;2.97;;
39970;SDS011;35425;51.142;17.178;2023-02-13T01:00:58;3.30;;;2.95;;
39970;SDS011;35425;51.142;17.178;2023-02-13T01:03:25;2.97;;;2.70;;
39970;SDS011;35425;51.142;17.178;2023-02-13T01:05:52;3.95;;;3.20;;
39970;SDS011;35425;51.142;17.178;2023-02-13T01:08:19;3.40;;;2.88;;
39970;SDS011;35425;51.142;17.178;2023-02-13T01:10:45;3.80;;;2.97;;
39970;SDS011;35425;51.142;17.178;2023-02-13T01:13:13;3.35;;;2.50;;
39970;SDS011;35425;51.142;17.178;2023-02-13T01:15:39;3.60;;;3.00;;
39970;SDS011;35425;51.142;17.178;2023-02-13T01:18:06;3.83;;;2.83;;
39970;SDS011;35425;51.142;17.178;2023-02-13T01:20:32;3.10;;;2.63;;
39970;SDS011;35425;51.142;17.178;2023-02-13T01:22:59;3.25;;;2.47;;
39970;SDS011;35425;51.142;17.178;2023-02-13T01:25:25;3.38;;;2.67;;
39970;SDS011;35425;51.142;17.178;2023-02-13T01:27:53;3.22;;;2.60;;
39970;SDS011;35425;51.142;17.178;2023-02-13T01:30:19;2.90;;;2.60;;
39970;SDS011;35425;51.142;17.178;2023-02-13T01:32:46;2.72;;;2.53;;
39970;SDS011;35425;51.142;17.178;2023-02-13T01:35:13;2.83;;;2.40;;
39970;SDS011;35425;51.142;17.178;2023-02-13T01:37:40;2.90;;;2.50;;
39970;SDS011;35425;51.142;17.178;2023-02-13T01:40:08;2.60;;;2.25;;
39970;SDS011;35425;51.142;17.178;2023-02-13T01:42:35;3.13;;;2.65;;
39970;SDS011;35425;51.142;17.178;2023-02-13T01:45:03;3.03;;;2.35;;
39970;SDS011;35425;51.142;17.178;2023-02-13T01:50:08;2.83;;;2.47;;
39970;SDS011;35425;51.142;17.178;2023-02-13T01:52:35;3.17;;;2.67;;
39970;SDS011;35425;51.142;17.178;2023-02-13T01:55:03;3.40;;;2.60;;
39970;SDS011;35425;51.142;17.178;2023-02-13T01:57:30;3.00;;;2.17;;
39970;SDS011;35425;51.142;17.178;2023-02-13T02:00:32;2.67;;;2.20;;
39970;SDS011;35425;51.142;17.178;2023-02-13T02:02:52;3.40;;;2.50;;
39970;SDS011;35425;51.142;17.178;2023-02-13T02:05:21;2.17;;;1.98;;
39970;SDS011;35425;51.142;17.178;2023-02-13T02:07:48;2.40;;;2.20;;
39970;SDS011;35425;51.142;17.178;2023-02-13T02:10:15;3.08;;;2.25;;
39970;SDS011;35425;51.142;17.178;2023-02-13T02:13:06;3.03;;;2.40;;
39970;SDS011;35425;51.142;17.178;2023-02-13T02:15:29;3.55;;;2.47;;
39970;SDS011;35425;51.142;17.178;2023-02-13T02:17:56;2.50;;;2.30;;
39970;SDS011;35425;51.142;17.178;2023-02-13T02:28:30;2.40;;;2.20;;
39970;SDS011;35425;51.142;17.178;2023-02-13T02:33:47;3.65;;;2.25;;
39970;SDS011;35425;51.142;17.178;2023-02-13T02:46:35;2.20;;;1.92;;
39970;SDS011;35425;51.142;17.178;2023-02-13T02:49:03;2.13;;;1.92;;
39970;SDS011;35425;51.142;17.178;2023-02-13T02:54:23;2.33;;;2.05;;
39970;SDS011;35425;51.142;17.178;2023-02-13T02:57:14;2.63;;;1.98;;
39970;SDS011;35425;51.142;17.178;2023-02-13T02:59:42;2.60;;;2.20;;
39970;SDS011;35425;51.142;17.178;2023-02-13T03:02:28;2.40;;;1.98;;
39970;SDS011;35425;51.142;17.178;2023-02-13T03:05:18;2.63;;;1.77;;
39970;SDS011;35425;51.142;17.178;2023-02-13T03:08:04;3.47;;;2.22;;
39970;SDS011;35425;51.142;17.178;2023-02-13T03:10:32;2.47;;;1.92;;
39970;SDS011;35425;51.142;17.178;2023-02-13T03:15:56;2.33;;;2.10;;
39970;SDS011;35425;51.142;17.178;2023-02-13T03:18:44;3.03;;;2.08;;
39970;SDS011;35425;51.142;17.178;2023-02-13T03:30:35;2.40;;;1.83;;
39970;SDS011;35425;51.142;17.178;2023-02-13T03:35:36;2.15;;;1.80;;
39970;SDS011;35425;51.142;17.178;2023-02-13T03:38:27;2.00;;;1.80;;
39970;SDS011;35425;51.142;17.178;2023-02-13T03:41:06;2.55;;;1.88;;
39970;SDS011;35425;51.142;17.178;2023-02-13T03:43:59;2.55;;;2.00;;
39970;SDS011;35425;51.142;17.178;2023-02-13T03:46:26;2.50;;;1.88;;
39970;SDS011;35425;51.142;17.178;2023-02-13T03:48:54;2.53;;;2.00;;
39970;SDS011;35425;51.142;17.178;2023-02-13T03:51:43;2.13;;;1.67;;
39970;SDS011;35425;51.142;17.178;2023-02-13T03:57:31;2.95;;;2.05;;
39970;SDS011;35425;51.142;17.178;2023-02-13T04:00:17;2.10;;;1.90;;
39970;SDS011;35425;51.142;17.178;2023-02-13T04:02:57;2.10;;;1.90;;
39970;SDS011;35425;51.142;17.178;2023-02-13T04:05:27;2.10;;;1.90;;
39970;SDS011;35425;51.142;17.178;2023-02-13T04:07:55;2.25;;;1.77;;
39970;SDS011;35425;51.142;17.178;2023-02-13T04:10:21;2.40;;;1.90;;
39970;SDS011;35425;51.142;17.178;2023-02-13T04:15:17;2.03;;;1.83;;
39970;SDS011;35425;51.142;17.178;2023-02-13T04:17:49;2.28;;;1.83;;
39970;SDS011;35425;51.142;17.178;2023-02-13T04:22:44;2.70;;;2.20;;
39970;SDS011;35425;51.142;17.178;2023-02-13T04:25:12;2.13;;;1.92;;
39970;SDS011;35425;51.142;17.178;2023-02-13T04:27:39;2.08;;;1.88;;
39970;SDS011;35425;51.142;17.178;2023-02-13T04:30:05;2.17;;;1.73;;
39970;SDS011;35425;51.142;17.178;2023-02-13T04:32:32;2.55;;;2.00;;
39970;SDS011;35425;51.142;17.178;2023-02-13T04:34:58;2.60;;;1.85;;
39970;SDS011;35425;51.142;17.178;2023-02-13T04:37:25;2.63;;;2.10;;
39970;SDS011;35425;51.142;17.178;2023-02-13T04:39:51;2.70;;;1.90;;
39970;SDS011;35425;51.142;17.178;2023-02-13T04:42:18;2.10;;;1.70;;
39970;SDS011;35425;51.142;17.178;2023-02-13T04:44:44;2.58;;;1.90;;
39970;SDS011;35425;51.142;17.178;2023-02-13T04:47:11;2.28;;;1.70;;
39970;SDS011;35425;51.142;17.178;2023-02-13T04:49:37;2.17;;;1.45;;
39970;SDS011;35425;51.142;17.178;2023-02-13T04:52:03;2.00;;;1.80;;
39970;SDS011;35425;51.142;17.178;2023-02-13T04:54:30;1.95;;;1.63;;
39970;SDS011;35425;51.142;17.178;2023-02-13T04:56:56;1.83;;;1.50;;
39970;SDS011;35425;51.142;17.178;2023-02-13T04:59:23;2.28;;;1.90;;
39970;SDS011;35425;51.142;17.178;2023-02-13T05:01:49;1.77;;;1.67;;
39970;SDS011;35425;51.142;17.178;2023-02-13T05:04:16;2.47;;;1.90;;
39970;SDS011;35425;51.142;17.178;2023-02-13T05:06:42;2.30;;;1.80;;
39970;SDS011;35425;51.142;17.178;2023-02-13T05:09:09;2.38;;;1.80;;
39970;SDS011;35425;51.142;17.178;2023-02-13T05:11:36;1.90;;;1.60;;
39970;SDS011;35425;51.142;17.178;2023-02-13T05:14:02;1.98;;;1.77;;
39970;SDS011;35425;51.142;17.178;2023-02-13T05:16:29;2.00;;;1.80;;
39970;SDS011;35425;51.142;17.178;2023-02-13T05:18:55;2.25;;;1.65;;
39970;SDS011;35425;51.142;17.178;2023-02-13T05:21:22;2.03;;;1.65;;
39970;SDS011;35425;51.142;17.178;2023-02-13T05:24:07;2.42;;;1.60;;
39970;SDS011;35425;51.142;17.178;2023-02-13T05:26:33;1.60;;;1.50;;
39970;SDS011;35425;51.142;17.178;2023-02-13T05:29:00;1.60;;;1.38;;
39970;SDS011;35425;51.142;17.178;2023-02-13T05:31:54;2.20;;;1.90;;
39970;SDS011;35425;51.142;17.178;2023-02-13T05:34:22;2.13;;;1.70;;
39970;SDS011;35425;51.142;17.178;2023-02-13T05:36:49;2.00;;;1.80;;
39970;SDS011;35425;51.142;17.178;2023-02-13T05:39:16;1.80;;;1.67;;
39970;SDS011;35425;51.142;17.178;2023-02-13T05:41:43;1.58;;;1.42;;
39970;SDS011;35425;51.142;17.178;2023-02-13T05:44:09;1.77;;;1.60;;
39970;SDS011;35425;51.142;17.178;2023-02-13T05:46:37;1.38;;;1.25;;
39970;SDS011;35425;51.142;17.178;2023-02-13T05:49:04;2.42;;;1.85;;
39970;SDS011;35425;51.142;17.178;2023-02-13T05:51:31;1.90;;;1.70;;
39970;SDS011;35425;51.142;17.178;2023-02-13T05:53:57;1.98;;;1.80;;
39970;SDS011;35425;51.142;17.178;2023-02-13T05:56:24;1.95;;;1.75;;
39970;SDS011;35425;51.142;17.178;2023-02-13T05:58:53;1.85;;;1.75;;
39970;SDS011;35425;51.142;17.178;2023-02-13T06:01:20;2.25;;;1.60;;
39970;SDS011;35425;51.142;17.178;2023-02-13T06:03:47;2.58;;;1.92;;
39970;SDS011;35425;51.142;17.178;2023-02-13T06:06:14;2.28;;;1.83;;
39970;SDS011;35425;51.142;17.178;2023-02-13T06:08:41;2.13;;;1.70;;
39970;SDS011;35425;51.142;17.178;2023-02-13T06:11:08;1.85;;;1.55;;
39970;SDS011;35425;51.142;17.178;2023-02-13T06:13:35;1.67;;;1.58;;
39970;SDS011;35425;51.142;17.178;2023-02-13T06:16:01;2.40;;;1.85;;
39970;SDS011;35425;51.142;17.178;2023-02-13T06:18:27;2.05;;;1.80;;
39970;SDS011;35425;51.142;17.178;2023-02-13T06:20:54;1.92;;;1.67;;
39970;SDS011;35425;51.142;17.178;2023-02-13T06:23:21;1.88;;;1.50;;
39970;SDS011;35425;51.142;17.178;2023-02-13T06:25:47;1.60;;;1.50;;
39970;SDS011;35425;51.142;17.178;2023-02-13T06:28:17;1.92;;;1.58;;
39970;SDS011;35425;51.142;17.178;2023-02-13T06:30:43;2.40;;;2.00;;
39970;SDS011;35425;51.142;17.178;2023-02-13T06:33:10;1.80;;;1.70;;
39970;SDS011;35425;51.142;17.178;2023-02-13T06:35:36;1.67;;;1.58;;
39970;SDS011;35425;51.142;17.178;2023-02-13T06:38:03;1.67;;;1.58;;
39970;SDS011;35425;51.142;17.178;2023-02-13T06:40:29;2.30;;;1.88;;
39970;SDS011;35425;51.142;17.178;2023-02-13T06:42:56;1.70;;;1.55;;
39970;SDS011;35425;51.142;17.178;2023-02-13T06:45:22;2.00;;;1.80;;
39970;SDS011;35425;51.142;17.178;2023-02-13T06:47:49;1.80;;;1.60;;
39970;SDS011;35425;51.142;17.178;2023-02-13T06:50:16;2.08;;;1.80;;
39970;SDS011;35425;51.142;17.178;2023-02-13T06:52:47;1.60;;;1.40;;
39970;SDS011;35425;51.142;17.178;2023-02-13T06:55:14;2.10;;;1.50;;
39970;SDS011;35425;51.142;17.178;2023-02-13T06:57:44;1.70;;;1.60;;
39970;SDS011;35425;51.142;17.178;2023-02-13T07:00:11;1.40;;;1.30;;
39970;SDS011;35425;51.142;17.178;2023-02-13T07:02:39;1.98;;;1.38;;
39970;SDS011;35425;51.142;17.178;2023-02-13T07:05:06;2.10;;;1.77;;
39970;SDS011;35425;51.142;17.178;2023-02-13T07:07:33;1.65;;;1.55;;
39970;SDS011;35425;51.142;17.178;2023-02-13T07:09:59;2.17;;;1.70;;
39970;SDS011;35425;51.142;17.178;2023-02-13T07:12:26;2.08;;;1.70;;
39970;SDS011;35425;51.142;17.178;2023-02-13T07:14:53;1.90;;;1.70;;
39970;SDS011;35425;51.142;17.178;2023-02-13T07:17:19;1.80;;;1.70;;
39970;SDS011;35425;51.142;17.178;2023-02-13T07:19:45;1.70;;;1.52;;
39970;SDS011;35425;51.142;17.178;2023-02-13T07:22:12;1.80;;;1.70;;
39970;SDS011;35425;51.142;17.178;2023-02-13T07:24:38;1.95;;;1.70;;
39970;SDS011;35425;51.142;17.178;2023-02-13T07:27:05;1.73;;;1.63;;
39970;SDS011;35425;51.142;17.178;2023-02-13T07:29:31;1.70;;;1.42;;
39970;SDS011;35425;51.142;17.178;2023-02-13T07:31:57;1.90;;;1.70;;
39970;SDS011;35425;51.142;17.178;2023-02-13T07:34:24;1.83;;;1.50;;
39970;SDS011;35425;51.142;17.178;2023-02-13T07:36:50;1.83;;;1.73;;
39970;SDS011;35425;51.142;17.178;2023-02-13T07:39:17;2.10;;;1.70;;
39970;SDS011;35425;51.142;17.178;2023-02-13T07:41:44;1.60;;;1.50;;
39970;SDS011;35425;51.142;17.178;2023-02-13T07:44:11;2.15;;;1.80;;
39970;SDS011;35425;51.142;17.178;2023-02-13T07:46:37;2.65;;;1.77;;
39970;SDS011;35425;51.142;17.178;2023-02-13T07:49:03;1.90;;;1.52;;
39970;SDS011;35425;51.142;17.178;2023-02-13T07:51:30;1.70;;;1.38;;
39970;SDS011;35425;51.142;17.178;2023-02-13T07:53:56;1.92;;;1.73;;
39970;SDS011;35425;51.142;17.178;2023-02-13T07:56:23;1.60;;;1.50;;
39970;SDS011;35425;51.142;17.178;2023-02-13T07:58:49;2.03;;;1.80;;
39970;SDS011;35425;51.142;17.178;2023-02-13T08:01:16;1.90;;;1.55;;
39970;SDS011;35425;51.142;17.178;2023-02-13T08:03:42;1.95;;;1.70;;
39970;SDS011;35425;51.142;17.178;2023-02-13T08:06:12;1.75;;;1.58;;
39970;SDS011;35425;51.142;17.178;2023-02-13T08:08:39;1.90;;;1.70;;
39970;SDS011;35425;51.142;17.178;2023-02-13T08:11:06;1.40;;;1.30;;
39970;SDS011;35425;51.142;17.178;2023-02-13T08:13:51;1.90;;;1.50;;
39970;SDS011;35425;51.142;17.178;2023-02-13T08:16:18;1.70;;;1.60;;
39970;SDS011;35425;51.142;17.178;2023-02-13T08:18:44;1.52;;;1.42;;
39970;SDS011;35425;51.142;17.178;2023-02-13T08:21:11;2.20;;;1.63;;
39970;SDS011;35425;51.142;17.178;2023-02-13T08:23:40;1.52;;;1.38;;
39970;SDS011;35425;51.142;17.178;2023-02-13T08:26:06;1.50;;;1.40;;
39970;SDS011;35425;51.142;17.178;2023-02-13T08:28:33;1.73;;;1.42;;
39970;SDS011;35425;51.142;17.178;2023-02-13T08:30:59;1.50;;;1.40;;
39970;SDS011;35425;51.142;17.178;2023-02-13T08:33:26;1.60;;;1.48;;
39970;SDS011;35425;51.142;17.178;2023-02-13T08:35:52;2.20;;;2.00;;
39970;SDS011;35425;51.142;17.178;2023-02-13T08:38:18;1.67;;;1.50;;
39970;SDS011;35425;51.142;17.178;2023-02-13T08:40:46;2.10;;;1.70;;
39970;SDS011;35425;51.142;17.178;2023-02-13T08:43:12;1.95;;;1.60;;
39970;SDS011;35425;51.142;17.178;2023-02-13T08:45:39;1.55;;;1.45;;
39970;SDS011;35425;51.142;17.178;2023-02-13T08:48:05;1.60;;;1.48;;
39970;SDS011;35425;51.142;17.178;2023-02-13T08:50:32;1.70;;;1.48;;
39970;SDS011;35425;51.142;17.178;2023-02-13T08:53:02;1.92;;;1.70;;
39970;SDS011;35425;51.142;17.178;2023-02-13T08:55:28;1.70;;;1.52;;
39970;SDS011;35425;51.142;17.178;2023-02-13T08:58:00;2.33;;;1.60;;
39970;SDS011;35425;51.142;17.178;2023-02-13T09:00:27;1.70;;;1.60;;
39970;SDS011;35425;51.142;17.178;2023-02-13T09:02:53;1.95;;;1.63;;
39970;SDS011;35425;51.142;17.178;2023-02-13T09:05:20;1.92;;;1.75;;
39970;SDS011;35425;51.142;17.178;2023-02-13T09:07:47;1.85;;;1.50;;
39970;SDS011;35425;51.142;17.178;2023-02-13T09:10:13;2.00;;;1.70;;
39970;SDS011;35425;51.142;17.178;2023-02-13T09:12:39;2.65;;;1.83;;
39970;SDS011;35425;51.142;17.178;2023-02-13T09:15:06;2.80;;;1.80;;
39970;SDS011;35425;51.142;17.178;2023-02-13T09:17:33;2.15;;;1.70;;
39970;SDS011;35425;51.142;17.178;2023-02-13T09:19:59;1.98;;;1.77;;
39970;SDS011;35425;51.142;17.178;2023-02-13T09:22:25;1.98;;;1.77;;
39970;SDS011;35425;51.142;17.178;2023-02-13T09:24:52;2.22;;;1.98;;
39970;SDS011;35425;51.142;17.178;2023-02-13T09:27:19;2.92;;;2.40;;
39970;SDS011;35425;51.142;17.178;2023-02-13T09:29:45;2.72;;;2.40;;
39970;SDS011;35425;51.142;17.178;2023-02-13T09:32:12;2.65;;;2.10;;
39970;SDS011;35425;51.142;17.178;2023-02-13T09:34:38;2.83;;;2.53;;
39970;SDS011;35425;51.142;17.178;2023-02-13T09:37:05;2.30;;;2.00;;
39970;SDS011;35425;51.142;17.178;2023-02-13T09:39:31;3.10;;;2.20;;
39970;SDS011;35425;51.142;17.178;2023-02-13T09:41:58;2.67;;;2.47;;
39970;SDS011;35425;51.142;17.178;2023-02-13T09:49:29;2.28;;;2.03;;
39970;SDS011;35425;51.142;17.178;2023-02-13T09:51:56;2.50;;;1.70;;
39970;SDS011;35425;51.142;17.178;2023-02-13T09:54:23;2.30;;;1.77;;
39970;SDS011;35425;51.142;17.178;2023-02-13T10:02:02;1.88;;;1.63;;
39970;SDS011;35425;51.142;17.178;2023-02-13T10:07:07;1.70;;;1.60;;
39970;SDS011;35425;51.142;17.178;2023-02-13T10:09:44;1.83;;;1.40;;
39970;SDS011;35425;51.142;17.178;2023-02-13T10:12:26;1.45;;;1.35;;
39970;SDS011;35425;51.142;17.178;2023-02-13T10:17:27;1.20;;;1.05;;
39970;SDS011;35425;51.142;17.178;2023-02-13T10:19:56;1.75;;;1.30;;
39970;SDS011;35425;51.142;17.178;2023-02-13T10:22:32;1.08;;;0.98;;
39970;SDS011;35425;51.142;17.178;2023-02-13T10:25:03;1.08;;;0.98;;
39970;SDS011;35425;51.142;17.178;2023-02-13T10:27:34;1.35;;;0.95;;
39970;SDS011;35425;51.142;17.178;2023-02-13T10:35:17;1.20;;;0.80;;
39970;SDS011;35425;51.142;17.178;2023-02-13T10:37:44;0.75;;;0.73;;
39970;SDS011;35425;51.142;17.178;2023-02-13T10:40:16;0.85;;;0.70;;
39970;SDS011;35425;51.142;17.178;2023-02-13T10:42:44;1.08;;;0.80;;
39970;SDS011;35425;51.142;17.178;2023-02-13T10:50:38;1.02;;;0.77;;
39970;SDS011;35425;51.142;17.178;2023-02-13T10:58:23;0.93;;;0.85;;
39970;SDS011;35425;51.142;17.178;2023-02-13T11:00:55;1.15;;;0.95;;
39970;SDS011;35425;51.142;17.178;2023-02-13T11:05:51;0.88;;;0.60;;
39970;SDS011;35425;51.142;17.178;2023-02-13T11:08:25;1.55;;;0.70;;
39970;SDS011;35425;51.142;17.178;2023-02-13T11:10:52;0.93;;;0.70;;
39970;SDS011;35425;51.142;17.178;2023-02-13T11:13:19;0.75;;;0.60;;
39970;SDS011;35425;51.142;17.178;2023-02-13T11:16:05;1.40;;;0.95;;
39970;SDS011;35425;51.142;17.178;2023-02-13T11:18:32;0.93;;;0.70;;
39970;SDS011;35425;51.142;17.178;2023-02-13T11:21:02;1.05;;;0.88;;
39970;SDS011;35425;51.142;17.178;2023-02-13T11:28:23;1.40;;;0.70;;
39970;SDS011;35425;51.142;17.178;2023-02-13T11:30:50;1.10;;;0.57;;
39970;SDS011;35425;51.142;17.178;2023-02-13T11:35:44;0.80;;;0.63;;
39970;SDS011;35425;51.142;17.178;2023-02-13T11:38:12;0.75;;;0.60;;
39970;SDS011;35425;51.142;17.178;2023-02-13T11:40:46;0.80;;;0.80;;
39970;SDS011;35425;51.142;17.178;2023-02-13T11:43:23;0.90;;;0.75;;
39970;SDS011;35425;51.142;17.178;2023-02-13T11:46:06;0.70;;;0.47;;
39970;SDS011;35425;51.142;17.178;2023-02-13T11:48:33;0.73;;;0.70;;
39970;SDS011;35425;51.142;17.178;2023-02-13T11:50:59;0.80;;;0.45;;
39970;SDS011;35425;51.142;17.178;2023-02-13T11:53:30;0.60;;;0.60;;
39970;SDS011;35425;51.142;17.178;2023-02-13T11:56:08;0.88;;;0.82;;
39970;SDS011;35425;51.142;17.178;2023-02-13T11:58:36;0.77;;;0.55;;
39970;SDS011;35425;51.142;17.178;2023-02-13T12:01:14;0.77;;;0.65;;
39970;SDS011;35425;51.142;17.178;2023-02-13T12:04:05;0.88;;;0.70;;
39970;SDS011;35425;51.142;17.178;2023-02-13T12:06:32;1.08;;;0.52;;
39970;SDS011;35425;51.142;17.178;2023-02-13T12:09:11;0.88;;;0.85;;
39970;SDS011;35425;51.142;17.178;2023-02-13T12:11:53;0.63;;;0.60;;
39970;SDS011;35425;51.142;17.178;2023-02-13T12:14:22;0.68;;;0.50;;
39970;SDS011;35425;51.142;17.178;2023-02-13T12:16:53;0.73;;;0.65;;
39970;SDS011;35425;51.142;17.178;2023-02-13T12:19:24;1.40;;;0.68;;
39970;SDS011;35425;51.142;17.178;2023-02-13T12:27:34;0.68;;;0.68;;
39970;SDS011;35425;51.142;17.178;2023-02-13T12:32:44;0.63;;;0.55;;
39970;SDS011;35425;51.142;17.178;2023-02-13T12:35:23;0.52;;;0.50;;
39970;SDS011;35425;51.142;17.178;2023-02-13T12:38:29;0.60;;;0.60;;
39970;SDS011;35425;51.142;17.178;2023-02-13T12:40:55;1.40;;;0.60;;
39970;SDS011;35425;51.142;17.178;2023-02-13T12:43:27;0.70;;;0.70;;
39970;SDS011;35425;51.142;17.178;2023-02-13T12:48:34;0.32;;;0.30;;
39970;SDS011;35425;51.142;17.178;2023-02-13T12:51:24;0.70;;;0.52;;
39970;SDS011;35425;51.142;17.178;2023-02-13T13:12:20;0.70;;;0.63;;
39970;SDS011;35425;51.142;17.178;2023-02-13T13:17:56;0.65;;;0.52;;
39970;SDS011;35425;51.142;17.178;2023-02-13T13:25:20;0.95;;;0.85;;
39970;SDS011;35425;51.142;17.178;2023-02-13T13:27:48;1.90;;;1.00;;
39970;SDS011;35425;51.142;17.178;2023-02-13T13:30:20;0.88;;;0.77;;
39970;SDS011;35425;51.142;17.178;2023-02-13T13:32:51;1.77;;;0.90;;
39970;SDS011;35425;51.142;17.178;2023-02-13T13:35:19;2.78;;;0.98;;
39970;SDS011;35425;51.142;17.178;2023-02-13T13:37:51;1.27;;;0.70;;
39970;SDS011;35425;51.142;17.178;2023-02-13T13:45:47;1.25;;;0.60;;
39970;SDS011;35425;51.142;17.178;2023-02-13T13:48:19;1.95;;;0.93;;
39970;SDS011;35425;51.142;17.178;2023-02-13T13:50:49;1.30;;;0.90;;
39970;SDS011;35425;51.142;17.178;2023-02-13T13:53:17;1.30;;;0.88;;
39970;SDS011;35425;51.142;17.178;2023-02-13T13:58:57;2.05;;;0.80;;
39970;SDS011;35425;51.142;17.178;2023-02-13T14:03:55;1.80;;;1.08;;
39970;SDS011;35425;51.142;17.178;2023-02-13T14:06:23;1.75;;;0.90;;
39970;SDS011;35425;51.142;17.178;2023-02-13T14:08:55;2.33;;;1.17;;
39970;SDS011;35425;51.142;17.178;2023-02-13T14:11:38;1.30;;;1.00;;
39970;SDS011;35425;51.142;17.178;2023-02-13T14:16:50;1.83;;;0.85;;
39970;SDS011;35425;51.142;17.178;2023-02-13T14:19:30;2.72;;;1.00;;
39970;SDS011;35425;51.142;17.178;2023-02-13T14:24:49;2.50;;;1.00;;
39970;SDS011;35425;51.142;17.178;2023-02-13T14:27:30;0.93;;;0.73;;
39970;SDS011;35425;51.142;17.178;2023-02-13T14:29:57;1.60;;;0.98;;
39970;SDS011;35425;51.142;17.178;2023-02-13T14:32:33;2.08;;;1.08;;
39970;SDS011;35425;51.142;17.178;2023-02-13T14:35:03;1.67;;;0.95;;
39970;SDS011;35425;51.142;17.178;2023-02-13T14:37:35;2.10;;;0.70;;
39970;SDS011;35425;51.142;17.178;2023-02-13T14:40:12;1.23;;;0.80;;
39970;SDS011;35425;51.142;17.178;2023-02-13T14:42:41;2.17;;;0.90;;
39970;SDS011;35425;51.142;17.178;2023-02-13T14:45:27;1.80;;;0.82;;
39970;SDS011;35425;51.142;17.178;2023-02-13T14:47:55;1.17;;;0.88;;
39970;SDS011;35425;51.142;17.178;2023-02-13T14:50:27;1.38;;;0.90;;
39970;SDS011;35425;51.142;17.178;2023-02-13T14:52:54;1.58;;;0.88;;
39970;SDS011;35425;51.142;17.178;2023-02-13T14:55:32;1.00;;;0.80;;
39970;SDS011;35425;51.142;17.178;2023-02-13T14:58:23;0.85;;;0.70;;
39970;SDS011;35425;51.142;17.178;2023-02-13T15:01:07;0.95;;;0.80;;
39970;SDS011;35425;51.142;17.178;2023-02-13T15:03:47;0.77;;;0.70;;
39970;SDS011;35425;51.142;17.178;2023-02-13T15:06:22;1.45;;;0.80;;
39970;SDS011;35425;51.142;17.178;2023-02-13T15:08:50;0.90;;;0.60;;
39970;SDS011;35425;51.142;17.178;2023-02-13T15:11:36;1.20;;;0.90;;
39970;SDS011;35425;51.142;17.178;2023-02-13T15:16:47;0.73;;;0.52;;
39970;SDS011;35425;51.142;17.178;2023-02-13T15:19:16;0.82;;;0.73;;
39970;SDS011;35425;51.142;17.178;2023-02-13T15:21:47;1.25;;;0.73;;
39970;SDS011;35425;51.142;17.178;2023-02-13T15:26:41;0.80;;;0.65;;
39970;SDS011;35425;51.142;17.178;2023-02-13T15:29:15;1.00;;;0.90;;
39970;SDS011;35425;51.142;17.178;2023-02-13T15:31:54;1.38;;;0.60;;
39970;SDS011;35425;51.142;17.178;2023-02-13T15:34:26;0.73;;;0.73;;
39970;SDS011;35425;51.142;17.178;2023-02-13T15:36:53;1.35;;;0.82;;
39970;SDS011;35425;51.142;17.178;2023-02-13T15:39:22;1.00;;;0.80;;
39970;SDS011;35425;51.142;17.178;2023-02-13T15:41:50;1.08;;;0.88;;
39970;SDS011;35425;51.142;17.178;2023-02-13T15:44:27;1.00;;;0.88;;
39970;SDS011;35425;51.142;17.178;2023-02-13T15:46:55;1.20;;;0.90;;
39970;SDS011;35425;51.142;17.178;2023-02-13T15:49:23;0.82;;;0.68;;
39970;SDS011;35425;51.142;17.178;2023-02-13T15:52:00;1.00;;;0.77;;
39970;SDS011;35425;51.142;17.178;2023-02-13T15:54:29;1.00;;;0.90;;
39970;SDS011;35425;51.142;17.178;2023-02-13T15:56:56;1.08;;;0.80;;
39970;SDS011;35425;51.142;17.178;2023-02-13T15:59:23;0.75;;;0.68;;
39970;SDS011;35425;51.142;17.178;2023-02-13T16:01:51;1.38;;;1.02;;
39970;SDS011;35425;51.142;17.178;2023-02-13T16:04:18;0.80;;;0.80;;
39970;SDS011;35425;51.142;17.178;2023-02-13T16:06:45;1.58;;;0.95;;
39970;SDS011;35425;51.142;17.178;2023-02-13T16:12:24;2.20;;;0.90;;
39970;SDS011;35425;51.142;17.178;2023-02-13T16:14:54;1.10;;;1.00;;
39970;SDS011;35425;51.142;17.178;2023-02-13T16:17:27;1.10;;;0.80;;
39970;SDS011;35425;51.142;17.178;2023-02-13T16:20:06;0.90;;;0.70;;
39970;SDS011;35425;51.142;17.178;2023-02-13T16:27:32;1.05;;;0.85;;
39970;SDS011;35425;51.142;17.178;2023-02-13T16:30:00;0.98;;;0.85;;
39970;SDS011;35425;51.142;17.178;2023-02-13T16:32:28;1.65;;;1.13;;
39970;SDS011;35425;51.142;17.178;2023-02-13T16:34:55;1.05;;;0.82;;
39970;SDS011;35425;51.142;17.178;2023-02-13T16:37:31;0.90;;;0.77;;
39970;SDS011;35425;51.142;17.178;2023-02-13T16:42:43;1.02;;;0.93;;
39970;SDS011;35425;51.142;17.178;2023-02-13T16:45:22;1.92;;;0.88;;
39970;SDS011;35425;51.142;17.178;2023-02-13T16:47:57;1.23;;;1.08;;
39970;SDS011;35425;51.142;17.178;2023-02-13T16:50:25;1.15;;;0.90;;
39970;SDS011;35425;51.142;17.178;2023-02-13T16:52:51;1.02;;;0.88;;
39970;SDS011;35425;51.142;17.178;2023-02-13T16:55:24;1.30;;;0.80;;
39970;SDS011;35425;51.142;17.178;2023-02-13T16:57:50;1.25;;;0.90;;
39970;SDS011;35425;51.142;17.178;2023-02-13T17:00:17;1.88;;;1.10;;
39970;SDS011;35425;51.142;17.178;2023-02-13T17:02:48;1.15;;;0.90;;
39970;SDS011;35425;51.142;17.178;2023-02-13T17:05:17;1.98;;;1.20;;
39970;SDS011;35425;51.142;17.178;2023-02-13T17:07:46;1.02;;;0.93;;
39970;SDS011;35425;51.142;17.178;2023-02-13T17:12:43;1.40;;;1.17;;
39970;SDS011;35425;51.142;17.178;2023-02-13T17:15:10;1.38;;;1.00;;
39970;SDS011;35425;51.142;17.178;2023-02-13T17:17:37;1.33;;;1.10;;
39970;SDS011;35425;51.142;17.178;2023-02-13T17:20:04;1.70;;;1.27;;
39970;SDS011;35425;51.142;17.178;2023-02-13T17:22:36;1.50;;;1.40;;
39970;SDS011;35425;51.142;17.178;2023-02-13T17:25:04;1.55;;;1.30;;
39970;SDS011;35425;51.142;17.178;2023-02-13T17:27:31;1.38;;;1.00;;
39970;SDS011;35425;51.142;17.178;2023-02-13T17:29:58;1.52;;;1.13;;
39970;SDS011;35425;51.142;17.178;2023-02-13T17:32:24;1.20;;;1.10;;